createdAt,value
2019-02-19T00:01:04.008Z,61.67
2019-02-19T00:03:31.816Z,61.37
2019-02-19T00:05:59.735Z,61.01
2019-02-19T00:08:27.649Z,60.72
2019-02-19T00:10:55.614Z,60.71
2019-02-19T00:13:23.515Z,61.50
2019-02-19T00:15:51.325Z,61.58
2019-02-19T00:18:20.059Z,61.38
2019-02-19T00:20:47.915Z,61.43
2019-02-19T00:23:15.775Z,61.51
2019-02-19T00:25:43.631Z,61.80
2019-02-19T00:28:11.469Z,61.47
2019-02-19T00:30:39.306Z,61.59
2019-02-19T00:33:07.167Z,60.93
2019-02-19T00:35:35.050Z,60.78
2019-02-19T00:38:02.900Z,60.72
2019-02-19T00:40:30.800Z,61.17
2019-02-19T00:42:59.120Z,61.78
2019-02-19T00:45:26.943Z,62.11
2019-02-19T00:47:54.818Z,61.65
2019-02-19T00:50:22.761Z,61.75
2019-02-19T00:52:50.613Z,62.13
2019-02-19T00:55:18.426Z,62.08
2019-02-19T00:57:46.287Z,62.05
2019-02-19T01:00:14.431Z,61.81
2019-02-19T01:02:42.234Z,61.93
2019-02-19T01:05:10.063Z,62.11
2019-02-19T01:07:37.954Z,62.16
2019-02-19T01:10:06.051Z,62.43
2019-02-19T01:12:33.852Z,62.47
2019-02-19T01:15:01.720Z,62.35
2019-02-19T01:17:29.581Z,62.31
2019-02-19T01:19:57.404Z,62.25
2019-02-19T01:22:25.221Z,62.30
2019-02-19T01:24:53.060Z,62.06
2019-02-19T01:27:21.063Z,61.65
2019-02-19T01:29:48.905Z,61.97
2019-02-19T01:32:16.754Z,62.39
2019-02-19T01:34:44.625Z,62.53
2019-02-19T01:37:12.467Z,62.82
2019-02-19T01:39:40.331Z,62.87
2019-02-19T01:42:08.147Z,63.00
2019-02-19T01:44:35.986Z,62.98
2019-02-19T01:47:03.797Z,63.00
2019-02-19T01:49:31.613Z,62.72
2019-02-19T01:51:59.534Z,62.75
2019-02-19T01:54:27.371Z,62.96
2019-02-19T01:56:55.206Z,62.75
2019-02-19T01:59:23.064Z,62.88
2019-02-19T02:01:50.911Z,62.83
2019-02-19T02:04:18.805Z,63.11
2019-02-19T02:06:46.654Z,63.19
2019-02-19T02:09:14.508Z,63.25
2019-02-19T02:11:42.367Z,63.30
2019-02-19T02:14:10.182Z,63.18
2019-02-19T02:16:37.998Z,63.22
2019-02-19T02:19:05.858Z,63.20
2019-02-19T02:21:33.657Z,63.17
2019-02-19T02:24:02.371Z,62.69
2019-02-19T02:26:30.196Z,62.38
2019-02-19T02:28:58.043Z,62.46
2019-02-19T02:31:25.858Z,62.59
2019-02-19T02:33:53.865Z,62.45
2019-02-19T02:36:21.721Z,62.47
2019-02-19T02:38:49.512Z,62.52
2019-02-19T02:41:17.370Z,62.49
2019-02-19T02:43:45.720Z,62.82
2019-02-19T02:46:13.590Z,62.92
2019-02-19T02:48:41.405Z,63.20
2019-02-19T02:51:09.241Z,63.52
2019-02-19T02:53:37.120Z,63.62
2019-02-19T02:56:04.965Z,63.72
2019-02-19T02:58:32.820Z,63.93
2019-02-19T03:01:00.677Z,63.92
2019-02-19T03:03:28.494Z,63.52
2019-02-19T03:06:23.732Z,63.47
2019-02-19T03:08:51.688Z,63.71
2019-02-19T03:11:19.538Z,63.69
2019-02-19T03:13:47.351Z,63.54
2019-02-19T03:16:15.199Z,63.47
2019-02-19T03:18:43.023Z,63.50
2019-02-19T03:21:10.858Z,63.45
2019-02-19T03:23:38.759Z,62.80
2019-02-19T03:26:06.603Z,62.68
2019-02-19T03:28:34.397Z,62.85
2019-02-19T03:31:02.248Z,63.00
2019-02-19T03:33:30.095Z,63.12
2019-02-19T03:35:57.951Z,62.90
2019-02-19T03:38:25.769Z,62.94
2019-02-19T03:40:53.623Z,62.88
2019-02-19T03:43:21.583Z,62.97
2019-02-19T03:45:49.429Z,63.13
2019-02-19T03:48:17.292Z,63.35
2019-02-19T03:50:45.108Z,63.49
2019-02-19T03:53:12.988Z,63.58
2019-02-19T03:55:40.812Z,63.65
2019-02-19T03:58:08.636Z,63.76
2019-02-19T04:00:36.662Z,63.58
2019-02-19T04:03:04.530Z,63.66
2019-02-19T04:05:32.443Z,64.29
2019-02-19T04:08:00.287Z,64.62
2019-02-19T04:10:28.412Z,64.54
2019-02-19T04:12:56.252Z,64.72
2019-02-19T04:15:24.078Z,65.15
2019-02-19T04:17:52.260Z,65.25
2019-02-19T04:20:20.083Z,65.66
2019-02-19T04:22:47.927Z,65.67
2019-02-19T04:25:15.873Z,65.49
2019-02-19T04:27:43.686Z,65.95
2019-02-19T04:30:11.509Z,66.21
2019-02-19T04:32:39.347Z,66.23
2019-02-19T04:35:07.264Z,66.22
2019-02-19T04:37:35.194Z,66.24
2019-02-19T04:40:03.397Z,66.41
2019-02-19T04:42:31.334Z,66.59
2019-02-19T04:44:59.254Z,66.44
2019-02-19T04:47:27.081Z,66.52
2019-02-19T04:49:54.919Z,66.72
2019-02-19T04:52:22.731Z,66.62
2019-02-19T04:54:50.615Z,66.99
2019-02-19T04:57:18.477Z,67.29
2019-02-19T04:59:46.333Z,67.35
2019-02-19T05:02:14.175Z,67.91
2019-02-19T05:04:42.022Z,67.99
2019-02-19T05:07:10.116Z,68.54
2019-02-19T05:09:37.959Z,69.30
2019-02-19T05:12:05.868Z,69.32
2019-02-19T05:14:33.683Z,69.17
2019-02-19T05:17:01.530Z,69.57
2019-02-19T05:19:29.332Z,70.07
2019-02-19T05:21:57.195Z,70.25
2019-02-19T05:24:25.012Z,70.30
2019-02-19T05:26:52.959Z,70.35
2019-02-19T05:29:20.772Z,70.76
2019-02-19T05:31:48.624Z,70.94
2019-02-19T05:34:16.401Z,70.91
2019-02-19T05:36:44.278Z,70.67
2019-02-19T05:39:12.216Z,70.88
2019-02-19T05:41:40.033Z,71.02
2019-02-19T05:44:07.875Z,71.28
2019-02-19T05:46:35.711Z,71.25
2019-02-19T05:49:03.566Z,71.41
2019-02-19T05:51:31.406Z,71.28
2019-02-19T05:53:59.206Z,71.26
2019-02-19T05:56:26.992Z,71.05
2019-02-19T05:58:54.883Z,70.93
2019-02-19T06:01:22.714Z,70.58
2019-02-19T06:03:50.547Z,70.43
2019-02-19T06:06:18.416Z,70.31
2019-02-19T06:08:46.286Z,69.82
2019-02-19T06:11:14.186Z,69.35
2019-02-19T06:13:42.110Z,69.22
2019-02-19T06:16:09.927Z,69.03
2019-02-19T06:18:37.766Z,68.62
2019-02-19T06:21:05.626Z,68.13
2019-02-19T06:23:33.479Z,68.12
2019-02-19T06:26:01.694Z,68.10
2019-02-19T06:28:29.527Z,67.51
2019-02-19T06:30:57.575Z,67.57
2019-02-19T06:33:25.402Z,67.77
2019-02-19T06:35:53.212Z,67.51
2019-02-19T06:38:21.072Z,67.57
2019-02-19T06:40:48.899Z,67.45
2019-02-19T06:43:16.744Z,67.79
2019-02-19T06:45:44.544Z,67.69
2019-02-19T06:48:12.377Z,67.50
2019-02-19T06:50:40.211Z,67.58
2019-02-19T06:53:08.558Z,67.27
2019-02-19T06:55:36.442Z,66.97
2019-02-19T06:58:04.254Z,66.70
2019-02-19T07:00:32.125Z,66.44
2019-02-19T07:03:22.455Z,66.55
2019-02-19T07:05:50.266Z,66.39
2019-02-19T07:08:21.971Z,66.29
2019-02-19T07:10:49.895Z,66.00
2019-02-19T07:13:17.737Z,65.59
2019-02-19T07:15:45.551Z,64.93
2019-02-19T07:18:13.451Z,64.63
2019-02-19T07:20:41.259Z,64.64
2019-02-19T07:23:09.099Z,63.95
2019-02-19T07:25:36.934Z,63.36
2019-02-19T07:28:04.754Z,62.96
2019-02-19T07:30:32.618Z,62.39
2019-02-19T07:33:00.463Z,60.63
2019-02-19T07:35:28.310Z,58.73
2019-02-19T07:37:56.182Z,57.16
2019-02-19T07:40:24.040Z,55.64
2019-02-19T07:42:52.227Z,55.78
2019-02-19T07:45:20.081Z,55.96
2019-02-19T07:47:47.923Z,55.83
2019-02-19T07:50:15.792Z,55.32
2019-02-19T07:52:43.707Z,54.53
2019-02-19T07:55:11.219Z,53.95
2019-02-19T07:57:39.186Z,53.93
2019-02-19T08:00:08.255Z,53.56
2019-02-19T08:02:36.092Z,54.14
2019-02-19T08:05:04.607Z,54.42
2019-02-19T08:07:32.513Z,54.71
2019-02-19T08:10:00.801Z,55.04
2019-02-19T08:12:28.735Z,55.52
2019-02-19T08:14:56.836Z,56.35
2019-02-19T08:17:32.869Z,56.34
2019-02-19T08:19:54.727Z,56.25
2019-02-19T08:22:22.618Z,54.16
2019-02-19T08:24:50.466Z,50.21
2019-02-19T08:27:18.439Z,47.37
2019-02-19T08:29:46.623Z,44.61
2019-02-19T08:32:14.608Z,42.62
2019-02-19T08:34:42.540Z,40.41
2019-02-19T08:37:10.398Z,39.38
2019-02-19T08:39:38.239Z,38.84
2019-02-19T08:42:06.080Z,38.46
2019-02-19T08:44:33.964Z,37.34
2019-02-19T08:47:01.773Z,37.30
2019-02-19T08:49:29.641Z,35.61
2019-02-19T08:51:57.523Z,34.34
2019-02-19T08:54:25.381Z,32.54
2019-02-19T08:56:53.398Z,32.41
2019-02-19T08:59:21.331Z,30.51
2019-02-19T09:01:49.150Z,30.52
2019-02-19T09:04:17.031Z,32.39
2019-02-19T09:06:44.865Z,33.08
2019-02-19T09:09:12.726Z,33.78
2019-02-19T09:11:40.553Z,32.10
2019-02-19T09:14:08.458Z,32.27
2019-02-19T09:16:36.271Z,31.13
2019-02-19T09:19:04.123Z,30.91
2019-02-19T09:21:31.970Z,31.59
2019-02-19T09:24:09.006Z,30.44
2019-02-19T09:26:30.028Z,30.23
2019-02-19T09:28:57.905Z,29.35
2019-02-19T09:31:25.738Z,28.82
2019-02-19T09:33:53.657Z,30.07
2019-02-19T09:36:21.481Z,31.78
2019-02-19T09:38:49.348Z,31.56
2019-02-19T09:41:17.206Z,30.13
2019-02-19T09:43:45.039Z,29.82
2019-02-19T09:48:46.670Z,29.80
2019-02-19T09:51:20.911Z,29.70
2019-02-19T09:53:51.157Z,29.02
2019-02-19T09:56:18.989Z,28.44
2019-02-19T09:58:46.849Z,27.78
2019-02-19T10:01:14.756Z,28.38
2019-02-19T10:03:42.659Z,28.38
2019-02-19T10:06:10.534Z,28.54
2019-02-19T10:08:38.444Z,29.88
2019-02-19T10:11:06.316Z,29.21
2019-02-19T10:13:34.181Z,29.55
2019-02-19T10:16:02.025Z,28.05
2019-02-19T10:18:29.873Z,27.71
2019-02-19T10:20:59.672Z,28.09
2019-02-19T10:23:27.520Z,26.79
2019-02-19T10:25:55.385Z,27.58
2019-02-19T10:28:23.283Z,27.11
2019-02-19T10:30:51.092Z,26.96
2019-02-19T10:33:18.985Z,26.50
2019-02-19T10:35:47.099Z,27.06
2019-02-19T10:38:14.938Z,28.36
2019-02-19T10:40:42.765Z,28.70
2019-02-19T10:43:10.638Z,29.25
2019-02-19T10:45:38.467Z,29.45
2019-02-19T10:48:06.342Z,28.51
2019-02-19T10:50:34.201Z,27.87
2019-02-19T10:53:02.071Z,28.69
2019-02-19T10:55:29.965Z,29.25
2019-02-19T10:57:57.852Z,28.71
2019-02-19T11:00:25.692Z,29.58
2019-02-19T11:02:53.562Z,28.86
2019-02-19T11:05:21.408Z,28.39
2019-02-19T11:07:49.253Z,30.39
2019-02-19T11:10:17.114Z,30.47
2019-02-19T11:12:45.017Z,30.31
2019-02-19T11:15:13.194Z,29.97
2019-02-19T11:17:41.082Z,29.59
2019-02-19T11:20:10.489Z,30.50
2019-02-19T11:22:38.402Z,31.95
2019-02-19T11:25:09.156Z,31.78
2019-02-19T11:27:37.051Z,31.70
2019-02-19T11:30:05.485Z,32.16
2019-02-19T11:32:33.304Z,31.93
2019-02-19T11:35:01.189Z,31.77
2019-02-19T11:37:29.076Z,32.49
2019-02-19T11:39:56.983Z,32.23
2019-02-19T11:42:24.863Z,33.03
2019-02-19T11:44:52.724Z,33.20
2019-02-19T11:47:26.484Z,33.07
2019-02-19T11:49:50.373Z,33.94
2019-02-19T11:52:18.201Z,34.66
2019-02-19T11:54:46.073Z,34.47
2019-02-19T11:57:13.963Z,35.17
2019-02-19T11:59:41.874Z,35.89
2019-02-19T12:02:13.433Z,35.93
2019-02-19T12:04:41.333Z,36.47
2019-02-19T12:07:09.170Z,36.58
2019-02-19T12:09:37.078Z,36.99
2019-02-19T12:12:04.925Z,36.99
2019-02-19T12:14:32.830Z,36.88
2019-02-19T12:17:00.758Z,36.97
2019-02-19T12:19:28.641Z,37.45
2019-02-19T12:21:56.516Z,38.71
2019-02-19T12:24:24.359Z,39.05
2019-02-19T12:26:52.195Z,39.48
2019-02-19T12:29:20.070Z,39.96
2019-02-19T12:31:47.954Z,40.50
2019-02-19T12:34:15.821Z,40.62
2019-02-19T12:36:43.655Z,40.42
2019-02-19T12:39:11.516Z,40.27
2019-02-19T12:41:39.403Z,40.41
2019-02-19T12:44:07.269Z,40.94
2019-02-19T12:46:35.133Z,41.15
2019-02-19T12:49:02.963Z,40.99
2019-02-19T12:51:30.841Z,41.74
2019-02-19T12:53:58.699Z,42.17
2019-02-19T12:56:26.535Z,42.40
2019-02-19T12:58:54.397Z,42.10
2019-02-19T13:01:22.258Z,41.47
2019-02-19T13:03:50.083Z,41.61
2019-02-19T13:06:17.976Z,41.17
2019-02-19T13:08:45.885Z,41.63
2019-02-19T13:11:13.771Z,41.21
2019-02-19T13:13:41.604Z,41.54
2019-02-19T13:16:09.434Z,41.09
2019-02-19T13:18:37.612Z,40.75
2019-02-19T13:21:05.454Z,41.59
2019-02-19T13:23:33.284Z,41.46
2019-02-19T13:26:01.127Z,41.65
2019-02-19T13:28:29.067Z,42.09
2019-02-19T13:30:57.047Z,41.91
2019-02-19T13:33:24.893Z,41.42
2019-02-19T13:35:52.761Z,41.08
2019-02-19T13:38:20.613Z,41.35
2019-02-19T13:40:48.482Z,41.12
2019-02-19T13:43:16.357Z,41.96
2019-02-19T13:45:44.325Z,42.72
2019-02-19T13:48:12.184Z,44.35
2019-02-19T13:50:39.997Z,44.10
2019-02-19T13:53:15.101Z,44.69
2019-02-19T13:55:46.294Z,44.55
2019-02-19T13:58:14.146Z,44.30
2019-02-19T14:00:43.714Z,44.62
2019-02-19T14:03:11.616Z,45.24
2019-02-19T14:05:39.467Z,46.23
2019-02-19T14:08:14.300Z,45.33
2019-02-19T14:10:37.166Z,45.97
2019-02-19T14:13:05.062Z,46.59
2019-02-19T14:15:58.720Z,46.60
2019-02-19T14:18:46.192Z,46.71
2019-02-19T14:21:32.586Z,47.75
2019-02-19T14:24:20.208Z,48.19
2019-02-19T14:27:26.012Z,48.79
2019-02-19T14:30:13.445Z,48.66
2019-02-19T14:33:03.596Z,49.04
2019-02-19T14:35:51.057Z,49.42
2019-02-19T14:38:37.433Z,49.24
2019-02-19T14:41:24.907Z,48.96
2019-02-19T14:44:01.179Z,49.57
2019-02-19T14:46:54.875Z,49.94
2019-02-19T14:49:46.976Z,50.02
2019-02-19T14:52:26.379Z,50.21
2019-02-19T14:55:06.436Z,50.40
2019-02-19T14:57:52.704Z,50.00
2019-02-19T15:00:55.353Z,50.36
2019-02-19T15:03:41.384Z,50.42
2019-02-19T15:06:17.496Z,51.14
2019-02-19T15:09:07.586Z,51.66
2019-02-19T15:11:58.115Z,51.15
2019-02-19T15:14:46.530Z,51.51
2019-02-19T15:17:34.109Z,51.16
2019-02-19T15:20:24.335Z,51.14
2019-02-19T15:23:27.149Z,50.73
2019-02-19T15:26:15.096Z,50.73
2019-02-19T15:29:01.407Z,51.13
2019-02-19T15:31:40.418Z,51.42
2019-02-19T15:34:26.812Z,51.71
2019-02-19T15:37:17.354Z,51.76
2019-02-19T15:40:03.665Z,51.99
2019-02-19T15:42:54.240Z,51.46
2019-02-19T15:45:41.662Z,52.21
2019-02-19T15:48:44.795Z,52.76
2019-02-19T15:51:22.001Z,52.28
2019-02-19T15:54:08.201Z,52.29
2019-02-19T15:56:54.391Z,52.76
2019-02-19T15:59:44.970Z,52.87
2019-02-19T16:02:31.377Z,52.97
2019-02-19T16:05:09.827Z,52.53
2019-02-19T16:08:09.223Z,52.51
2019-02-19T16:10:45.409Z,53.03
2019-02-19T16:13:27.740Z,53.10
2019-02-19T16:16:14.207Z,52.80
2019-02-19T16:18:48.831Z,53.30
2019-02-19T16:21:31.321Z,53.81
2019-02-19T16:24:17.890Z,54.04
2019-02-19T16:27:17.391Z,54.29
2019-02-19T16:30:03.549Z,54.95
2019-02-19T16:33:00.244Z,55.37
2019-02-19T16:35:37.073Z,55.31
2019-02-19T16:38:20.708Z,55.54
2019-02-19T16:41:08.154Z,55.62
2019-02-19T16:43:51.777Z,55.42
2019-02-19T16:46:45.249Z,55.47
2019-02-19T16:49:35.584Z,55.65
2019-02-19T16:52:21.569Z,56.40
2019-02-19T16:55:11.392Z,56.51
2019-02-19T17:00:55.878Z,57.11
2019-02-19T17:03:37.956Z,57.46
2019-02-19T17:06:21.334Z,57.57
2019-02-19T17:08:55.603Z,58.07
2019-02-19T17:11:42.175Z,58.34
2019-02-19T17:14:33.226Z,58.01
2019-02-19T17:17:22.229Z,58.00
2019-02-19T17:20:21.033Z,58.19
2019-02-19T17:22:59.584Z,57.71
2019-02-19T17:25:51.569Z,57.79
2019-02-19T17:28:43.090Z,58.63
2019-02-19T17:31:39.810Z,58.57
2019-02-19T17:34:36.165Z,58.82
2019-02-19T17:37:23.174Z,59.10
2019-02-19T17:40:13.659Z,59.24
2019-02-19T17:43:00.023Z,59.38
2019-02-19T17:45:41.030Z,59.13
2019-02-19T17:48:19.866Z,59.35
2019-02-19T17:51:07.387Z,59.45
2019-02-19T17:53:59.337Z,59.12
2019-02-19T17:56:55.983Z,59.31
2019-02-19T17:59:43.838Z,59.10
2019-02-19T18:02:31.274Z,59.48
2019-02-19T18:05:18.735Z,59.42
2019-02-19T18:08:02.499Z,59.38
2019-02-19T18:10:36.303Z,59.74
2019-02-19T18:13:33.095Z,59.41
2019-02-19T18:16:19.209Z,59.60
2019-02-19T18:18:50.155Z,60.08
2019-02-19T18:21:18.819Z,60.28
2019-02-19T18:23:46.813Z,60.21
2019-02-19T18:26:14.726Z,60.46
2019-02-19T18:28:42.648Z,60.58
2019-02-19T18:31:10.955Z,61.01
2019-02-19T18:33:38.872Z,61.18
2019-02-19T18:36:06.774Z,61.07
2019-02-19T18:38:34.639Z,60.92
2019-02-19T18:41:03.716Z,60.88
2019-02-19T18:43:31.856Z,60.66
2019-02-19T18:46:01.297Z,61.62
2019-02-19T18:48:29.292Z,62.27
2019-02-19T18:50:58.464Z,63.03
2019-02-19T18:53:26.933Z,63.30
2019-02-19T18:55:55.067Z,63.53
2019-02-19T18:58:22.932Z,63.86
2019-02-19T19:00:50.851Z,63.58
2019-02-19T19:03:18.817Z,63.80
2019-02-19T19:05:46.706Z,64.19
2019-02-19T19:08:14.611Z,63.76
2019-02-19T19:10:42.603Z,63.92
2019-02-19T19:13:10.508Z,63.78
2019-02-19T19:15:38.383Z,63.77
2019-02-19T19:18:06.302Z,63.17
2019-02-19T19:20:34.228Z,63.97
2019-02-19T19:23:02.094Z,64.93
2019-02-19T19:27:55.492Z,64.60
2019-02-19T19:30:23.466Z,64.22
2019-02-19T19:32:51.381Z,64.83
2019-02-19T19:35:19.287Z,64.99
2019-02-19T19:37:47.187Z,64.72
2019-02-19T19:40:15.094Z,64.71
2019-02-19T19:42:42.991Z,64.64
2019-02-19T19:45:11.083Z,64.49
2019-02-19T19:47:38.969Z,64.61
2019-02-19T19:50:07.462Z,64.34
2019-02-19T19:52:35.347Z,64.30
2019-02-19T19:55:03.639Z,64.24
2019-02-19T19:57:31.683Z,64.21
2019-02-19T19:59:59.561Z,64.54
2019-02-19T20:02:27.465Z,64.69
2019-02-19T20:04:55.360Z,65.05
2019-02-19T20:07:23.236Z,64.95
2019-02-19T20:09:51.142Z,65.19
2019-02-19T20:12:19.015Z,65.18
2019-02-19T20:14:47.008Z,65.18
2019-02-19T20:17:14.942Z,64.99
2019-02-19T20:19:43.081Z,65.42
2019-02-19T20:22:10.964Z,65.45
2019-02-19T20:24:38.902Z,65.64
2019-02-19T20:27:06.845Z,65.51
2019-02-19T20:29:34.749Z,65.86
2019-02-19T20:32:02.703Z,65.53
2019-02-19T20:34:30.672Z,65.83
2019-02-19T20:36:58.582Z,65.72
2019-02-19T20:39:26.443Z,66.14
2019-02-19T20:41:54.359Z,66.18
2019-02-19T20:44:22.341Z,66.36
2019-02-19T20:46:50.312Z,66.24
2019-02-19T20:49:18.267Z,66.31
2019-02-19T20:51:46.123Z,66.48
2019-02-19T20:54:14.075Z,65.56
2019-02-19T20:56:42.319Z,65.78
2019-02-19T20:59:10.231Z,66.42
2019-02-19T21:01:38.097Z,66.63
2019-02-19T21:04:06.223Z,66.60
2019-02-19T21:06:34.120Z,66.41
2019-02-19T21:09:02.186Z,66.52
2019-02-19T21:11:30.157Z,66.70
2019-02-19T21:13:58.370Z,67.26
2019-02-19T21:16:26.249Z,67.37
2019-02-19T21:18:54.135Z,67.78
2019-02-19T21:21:22.057Z,68.67
2019-02-19T21:23:49.924Z,68.78
2019-02-19T21:26:18.751Z,69.23
2019-02-19T21:28:46.784Z,69.10
2019-02-19T21:31:14.743Z,69.12
2019-02-19T21:33:42.714Z,68.50
2019-02-19T21:36:10.625Z,68.03
2019-02-19T21:38:38.571Z,67.91
2019-02-19T21:41:07.768Z,68.15
2019-02-19T21:43:36.045Z,68.47
2019-02-19T21:46:03.923Z,68.67
2019-02-19T21:48:31.836Z,68.71
2019-02-19T21:50:59.661Z,68.55
2019-02-19T21:53:27.567Z,68.22
2019-02-19T21:55:55.532Z,68.46
2019-02-19T21:58:23.442Z,68.29
2019-02-19T22:00:51.331Z,68.57
2019-02-19T22:03:19.262Z,69.36
2019-02-19T22:05:47.135Z,69.84
2019-02-19T22:08:15.022Z,70.12
2019-02-19T22:10:42.911Z,69.74
2019-02-19T22:13:10.828Z,69.29
2019-02-19T22:15:38.694Z,69.77
2019-02-19T22:18:06.587Z,70.08
2019-02-19T22:20:49.025Z,69.76
2019-02-19T22:23:16.962Z,69.62
2019-02-19T22:25:44.775Z,69.97
2019-02-19T22:28:12.686Z,70.82
2019-02-19T22:30:40.583Z,71.27
2019-02-19T22:33:08.458Z,71.33
2019-02-19T22:35:36.332Z,71.06
2019-02-19T22:38:04.196Z,70.78
2019-02-19T22:40:32.106Z,70.70
2019-02-19T22:42:59.986Z,71.15
2019-02-19T22:45:27.893Z,71.25
2019-02-19T22:47:55.735Z,71.31
2019-02-19T22:50:23.607Z,71.71
2019-02-19T22:52:51.476Z,71.52
2019-02-19T22:55:31.349Z,70.58
2019-02-19T22:57:59.176Z,71.21
2019-02-19T23:00:57.845Z,72.00
2019-02-19T23:03:26.179Z,71.78
2019-02-19T23:05:54.223Z,71.79
2019-02-19T23:08:22.119Z,71.45
2019-02-19T23:10:49.972Z,71.65
2019-02-19T23:13:17.858Z,71.38
2019-02-19T23:15:45.706Z,71.51
2019-02-19T23:18:13.546Z,71.88
2019-02-19T23:20:41.506Z,72.10
2019-02-19T23:23:09.347Z,73.16
2019-02-19T23:25:37.210Z,73.75
2019-02-19T23:28:05.091Z,73.81
2019-02-19T23:30:33.764Z,74.15
2019-02-19T23:33:01.676Z,73.72
2019-02-19T23:35:49.129Z,73.73
2019-02-19T23:38:17.010Z,73.64
2019-02-19T23:40:44.829Z,73.88
2019-02-19T23:43:12.664Z,73.59
2019-02-19T23:45:40.476Z,73.88
2019-02-19T23:48:08.349Z,74.00
2019-02-19T23:50:36.187Z,74.46
2019-02-19T23:53:04.042Z,75.18
2019-02-19T23:55:31.968Z,76.12
2019-02-19T23:58:00.204Z,77.06
